Time,TemperatureF,DewpointF,PressureIn,WindDirection,WindDirectionDegrees,WindSpeedMPH,WindSpeedGustMPH,Humidity,HourlyPrecipIn,Conditions,Clouds,dailyrainin,SoftwareType,DateUTC
2013-01-22 00:00:00,9.5,2.3,29.82,NW,316,12.0,16.0,72,0.00,CLR,CLR,0.00,WeatherDisplay:10.37,2013-01-22 05:00:00,
2013-01-22 00:02:00,9.5,2.0,29.82,WSW,248,13.3,13.3,71,0.00,CLR,,0.00,WeatherDisplay:10.37,2013-01-22 05:02:00,
2013-01-22 00:08:00,9.3,1.5,29.82,NW,315,3.1,12.7,70,0.00,CLR,,0.00,WeatherDisplay:10.37,2013-01-22 05:08:00,
2013-01-22 00:09:00,9.3,1.8,29.82,West,270,9.0,9.2,71,0.00,CLR,,0.00,WeatherDisplay:10.37,2013-01-22 05:09:00,
2013-01-22 00:10:00,9.3,1.8,29.82,WSW,248,6.4,9.2,71,0.00,CLR,,0.00,WeatherDisplay:10.37,2013-01-22 05:10:00,
2013-01-22 00:15:00,9.1,1.6,29.82,WNW,292,4.6,5.8,71,0.00,CLR,,0.00,WeatherDisplay:10.37,2013-01-22 05:15:00,
2013-01-22 00:20:00,9.0,1.5,29.82,NNW,338,9.0,11.5,71,0.00,CLR,,0.00,WeatherDisplay:10.37,2013-01-22 05:20:00,
2013-01-22 00:25:00,9.0,1.5,29.82,WNW,292,16.6,16.6,71,0.00,CLR,,0.00,WeatherDisplay:10.37,2013-01-22 05:25:00,
2013-01-22 00:30:00,9.0,1.5,29.82,NNW,338,11.1,11.1,71,0.00,CLR,,0.00,WeatherDisplay:10.37,2013-01-22 05:30:00,
2013-01-22 00:35:00,9.0,1.5,29.82,WSW,248,13.6,16.1,71,0.00,CLR,,0.00,WeatherDisplay:10.37,2013-01-22 05:35:00,
2013-01-22 00:40:00,8.8,1.3,29.82,WNW,292,5.8,9.2,71,0.00,CLR,,0.00,WeatherDisplay:10.37,2013-01-22 05:40:00,
2013-01-22 00:45:00,8.8,1.3,29.82,WSW,248,8.4,11.5,71,0.00,CLR,,0.00,WeatherDisplay:10.37,2013-01-22 05:45:00,
2013-01-22 00:50:00,8.6,1.4,29.81,NW,315,15.7,20.7,72,0.00,CLR,,0.00,WeatherDisplay:10.37,2013-01-22 05:50:00,
2013-01-22 00:55:00,8.6,1.4,29.81,NW,315,9.6,13.8,72,0.00,CLR,,0.00,WeatherDisplay:10.37,2013-01-22 05:55:00,
2013-01-22 01:00:00,8.4,1.5,29.81,NW,315,12.0,15.0,73,0.00,CLR,,0.00,WeatherDisplay:10.37,2013-01-22 06:00:00,
2013-01-22 01:05:00,8.4,1.5,29.81,NW,315,8.1,15.0,73,0.00,CLR,,0.00,WeatherDisplay:10.37,2013-01-22 06:05:00,
2013-01-22 01:10:00,8.4,1.5,29.81,NW,315,8.1,9.2,73,0.00,CLR,,0.00,WeatherDisplay:10.37,2013-01-22 06:10:00,
2013-01-22 01:15:00,8.2,1.9,29.81,West,270,6.1,6.9,75,0.00,CLR,,0.00,WeatherDisplay:10.37,2013-01-22 06:15:00,
2013-01-22 01:20:00,8.2,2.2,29.81,WNW,292,6.4,10.4,76,0.00,CLR,,0.00,WeatherDisplay:10.37,2013-01-22 06:20:00,
2013-01-22 01:25:00,8.2,2.8,29.81,West,270,8.7,11.5,78,0.00,CLR,,0.00,WeatherDisplay:10.37,2013-01-22 06:25:00,
2013-01-22 01:30:00,8.2,3.1,29.81,WNW,292,8.1,9.2,79,0.00,CLR,,0.00,WeatherDisplay:10.37,2013-01-22 06:30:00,
2013-01-22 01:36:00,8.1,2.9,29.82,NW,315,11.1,11.1,79,0.00,CLR,,0.00,WeatherDisplay:10.37,2013-01-22 06:36:00,
2013-01-22 01:42:00,7.9,2.2,29.82,WSW,248,12.3,12.3,77,0.00,CLR,,0.00,WeatherDisplay:10.37,2013-01-22 06:42:00,
2013-01-22 01:48:00,7.7,1.7,29.82,WSW,248,15.4,15.4,76,0.00,CLR,,0.00,WeatherDisplay:10.37,2013-01-22 06:48:00,
2013-01-22 01:53:00,7.7,1.4,29.82,North,0,10.2,10.2,75,0.00,CLR,,0.00,WeatherDisplay:10.37,2013-01-22 06:53:00,
2013-01-22 01:59:00,7.7,1.1,29.82,NNW,338,7.8,12.7,74,0.00,CLR,,0.00,WeatherDisplay:10.37,2013-01-22 06:59:00,
2013-01-22 02:04:00,7.5,0.7,29.83,WNW,292,11.7,12.7,73,0.00,CLR,,0.00,WeatherDisplay:10.37,2013-01-22 07:04:00,
2013-01-22 02:09:00,7.5,0.7,29.83,NW,315,12.3,15.0,73,0.00,CLR,,0.00,WeatherDisplay:10.37,2013-01-22 07:09:00,
2013-01-22 02:15:00,7.5,0.4,29.83,NNE,22,9.0,11.5,72,0.00,CLR,,0.00,WeatherDisplay:10.37,2013-01-22 07:15:00,
2013-01-22 02:20:00,7.3,0.2,29.84,WSW,248,6.1,10.4,72,0.00,CLR,,0.00,WeatherDisplay:10.37,2013-01-22 07:20:00,
2013-01-22 02:25:00,7.3,-0.1,29.84,NW,315,8.4,12.7,71,0.00,CLR,,0.00,WeatherDisplay:10.37,2013-01-22 07:25:00,
2013-01-22 02:30:00,7.2,-0.8,29.84,NW,308,13.0,16.0,69,0.00,CLR,CLR,0.00,WeatherDisplay:10.37,2013-01-22 07:30:00,
2013-01-22 02:36:00,7.2,-0.9,29.84,West,270,13.0,13.8,69,0.00,CLR,,0.00,WeatherDisplay:10.37,2013-01-22 07:36:00,
2013-01-22 02:41:00,7.0,-1.4,29.85,West,270,14.2,14.2,68,0.00,CLR,,0.00,WeatherDisplay:10.37,2013-01-22 07:41:00,
2013-01-22 02:46:00,7.0,-1.4,29.85,West,270,15.4,15.4,68,0.00,CLR,,0.00,WeatherDisplay:10.37,2013-01-22 07:46:00,
2013-01-22 02:51:00,6.8,-1.2,29.85,West,270,9.9,9.9,69,0.00,CLR,,0.00,WeatherDisplay:10.37,2013-01-22 07:51:00,
2013-01-22 02:56:00,6.8,-1.2,29.85,WNW,292,9.0,9.0,69,0.00,CLR,,0.00,WeatherDisplay:10.37,2013-01-22 07:56:00,
2013-01-22 03:02:00,6.8,-0.9,29.85,WNW,292,10.2,10.2,70,0.00,CLR,,0.00,WeatherDisplay:10.37,2013-01-22 08:02:00,
2013-01-22 03:07:00,6.8,-0.9,29.85,WSW,248,9.9,10.4,70,0.00,CLR,,0.00,WeatherDisplay:10.37,2013-01-22 08:07:00,
2013-01-22 03:13:00,6.6,-1.1,29.86,NW,315,6.7,11.5,70,0.00,CLR,,0.00,WeatherDisplay:10.37,2013-01-22 08:13:00,
2013-01-22 03:18:00,6.4,-1.3,29.86,West,270,12.9,13.8,70,0.00,CLR,,0.00,WeatherDisplay:10.37,2013-01-22 08:18:00,
2013-01-22 03:23:00,6.3,-1.4,29.86,NW,315,7.3,10.4,70,0.00,CLR,,0.00,WeatherDisplay:10.37,2013-01-22 08:23:00,
2013-01-22 03:28:00,6.1,-1.3,29.86,NW,315,16.0,16.0,71,0.00,CLR,,0.00,WeatherDisplay:10.37,2013-01-22 08:28:00,
2013-01-22 03:33:00,5.9,-1.5,29.86,NW,315,13.9,16.1,71,0.00,CLR,,0.00,WeatherDisplay:10.37,2013-01-22 08:33:00,
2013-01-22 03:38:00,5.7,-1.4,29.86,WNW,292,5.5,9.2,72,0.00,CLR,,0.00,WeatherDisplay:10.37,2013-01-22 08:38:00,
2013-01-22 03:43:00,5.7,-1.7,29.86,WNW,292,10.8,10.8,71,0.00,CLR,,0.00,WeatherDisplay:10.37,2013-01-22 08:43:00,
2013-01-22 03:48:00,5.7,-2.0,29.86,WSW,248,9.0,13.8,70,0.00,CLR,,0.00,WeatherDisplay:10.37,2013-01-22 08:48:00,
2013-01-22 03:53:00,5.7,-1.4,29.86,NW,315,13.3,13.3,72,0.00,CLR,,0.00,WeatherDisplay:10.37,2013-01-22 08:53:00,
2013-01-22 03:58:00,5.5,-1.0,29.86,West,270,7.0,10.4,74,0.00,CLR,,0.00,WeatherDisplay:10.37,2013-01-22 08:58:00,
2013-01-22 04:03:00,5.4,-0.8,29.86,West,270,17.5,17.5,75,0.00,CLR,,0.00,WeatherDisplay:10.37,2013-01-22 09:03:00,
2013-01-22 04:08:00,5.4,-0.8,29.86,West,270,2.4,10.4,75,0.00,CLR,,0.00,WeatherDisplay:10.37,2013-01-22 09:08:00,
2013-01-22 04:13:00,5.4,-1.1,29.86,NW,315,11.1,12.7,74,0.00,CLR,,0.00,WeatherDisplay:10.37,2013-01-22 09:13:00,
2013-01-22 04:18:00,5.4,-2.0,29.87,SSW,202,11.7,15.0,71,0.00,CLR,,0.00,WeatherDisplay:10.37,2013-01-22 09:18:00,
2013-01-22 04:23:00,5.2,-2.8,29.87,NW,315,5.8,16.1,69,0.00,CLR,,0.00,WeatherDisplay:10.37,2013-01-22 09:23:00,
2013-01-22 04:28:00,5.2,-3.1,29.87,WSW,248,10.8,15.0,68,0.00,CLR,,0.00,WeatherDisplay:10.37,2013-01-22 09:28:00,
2013-01-22 04:33:00,5.0,-3.6,29.87,West,270,7.8,13.8,67,0.00,CLR,,0.00,WeatherDisplay:10.37,2013-01-22 09:33:00,
2013-01-22 04:38:00,5.0,-3.6,29.87,West,270,10.5,17.3,67,0.00,CLR,,0.00,WeatherDisplay:10.37,2013-01-22 09:38:00,
2013-01-22 04:43:00,4.8,-3.7,29.87,NNW,338,10.8,10.8,67,0.00,CLR,,0.00,WeatherDisplay:10.37,2013-01-22 09:43:00,
2013-01-22 04:48:00,4.8,-3.7,29.88,North,0,6.1,6.1,67,0.00,CLR,,0.00,WeatherDisplay:10.37,2013-01-22 09:48:00,
2013-01-22 04:53:00,4.6,-3.9,29.88,NNW,338,16.6,16.6,67,0.00,CLR,,0.00,WeatherDisplay:10.37,2013-01-22 09:53:00,
2013-01-22 04:58:00,4.6,-3.6,29.88,WSW,248,9.0,12.7,68,0.00,CLR,,0.00,WeatherDisplay:10.37,2013-01-22 09:58:00,
2013-01-22 05:03:00,4.6,-3.3,29.88,NW,315,3.1,11.5,69,0.00,CLR,,0.00,WeatherDisplay:10.37,2013-01-22 10:03:00,
2013-01-22 05:08:00,4.5,-3.2,29.88,West,270,9.3,13.8,70,0.00,CLR,,0.00,WeatherDisplay:10.37,2013-01-22 10:08:00,
2013-01-22 05:13:00,4.3,-3.3,29.88,WNW,292,6.1,6.9,70,0.00,CLR,,0.00,WeatherDisplay:10.37,2013-01-22 10:13:00,
2013-01-22 05:18:00,4.3,-3.3,29.88,West,270,11.1,11.5,70,0.00,CLR,,0.00,WeatherDisplay:10.37,2013-01-22 10:18:00,
2013-01-22 05:23:00,4.3,-3.0,29.89,NNW,338,3.7,10.4,71,0.00,CLR,,0.00,WeatherDisplay:10.37,2013-01-22 10:23:00,
2013-01-22 05:28:00,4.3,-2.5,29.89,WNW,292,6.7,9.2,73,0.00,CLR,,0.00,WeatherDisplay:10.37,2013-01-22 10:28:00,
2013-01-22 05:33:00,4.1,-2.6,29.89,WSW,248,8.1,9.2,73,0.00,CLR,,0.00,WeatherDisplay:10.37,2013-01-22 10:33:00,
2013-01-22 05:38:00,4.1,-2.6,29.89,WNW,292,5.8,13.8,73,0.00,CLR,,0.00,WeatherDisplay:10.37,2013-01-22 10:38:00,
2013-01-22 05:43:00,3.9,-3.1,29.90,WNW,292,9.0,12.7,72,0.00,CLR,,0.00,WeatherDisplay:10.37,2013-01-22 10:43:00,
2013-01-22 05:48:00,3.9,-3.1,29.90,NNW,338,8.7,10.4,72,0.00,CLR,,0.00,WeatherDisplay:10.37,2013-01-22 10:48:00,
2013-01-22 05:53:00,3.9,-3.1,29.90,WNW,292,14.2,18.4,72,0.00,CLR,,0.00,WeatherDisplay:10.37,2013-01-22 10:53:00,
2013-01-22 05:58:00,3.9,-3.1,29.90,NNW,338,11.1,11.1,72,0.00,CLR,,0.00,WeatherDisplay:10.37,2013-01-22 10:58:00,
2013-01-22 06:03:00,3.9,-2.5,29.90,NNW,338,5.2,9.2,74,0.00,CLR,,0.00,WeatherDisplay:10.37,2013-01-22 11:03:00,
2013-01-22 06:08:00,3.9,-2.0,29.91,NW,315,3.1,6.9,76,0.00,CLR,,0.00,WeatherDisplay:10.37,2013-01-22 11:08:00,
2013-01-22 06:13:00,3.9,-2.0,29.91,NW,315,6.1,6.1,76,0.00,CLR,,0.00,WeatherDisplay:10.37,2013-01-22 11:13:00,
2013-01-22 06:18:00,3.9,-2.0,29.91,WNW,292,9.9,9.9,76,0.00,CLR,,0.00,WeatherDisplay:10.37,2013-01-22 11:18:00,
2013-01-22 06:23:00,3.9,-2.5,29.92,NW,315,7.3,8.1,74,0.00,CLR,,0.00,WeatherDisplay:10.37,2013-01-22 11:23:00,
2013-01-22 06:28:00,3.9,-3.1,29.92,NW,315,7.6,8.1,72,0.00,CLR,,0.00,WeatherDisplay:10.37,2013-01-22 11:28:00,
2013-01-22 06:33:00,3.9,-3.1,29.92,NW,315,6.4,12.7,72,0.00,CLR,,0.00,WeatherDisplay:10.37,2013-01-22 11:33:00,
2013-01-22 06:38:00,3.9,-3.1,29.92,West,270,8.1,19.6,72,0.00,CLR,,0.00,WeatherDisplay:10.37,2013-01-22 11:38:00,
2013-01-22 06:43:00,3.7,-3.3,29.92,West,270,9.0,9.0,72,0.00,CLR,,0.00,WeatherDisplay:10.37,2013-01-22 11:43:00,
2013-01-22 06:48:00,3.7,-3.6,29.92,WNW,292,4.3,12.7,71,0.00,CLR,,0.00,WeatherDisplay:10.37,2013-01-22 11:48:00,
2013-01-22 06:53:00,3.7,-3.3,29.92,NW,315,9.0,9.2,72,0.00,CLR,,0.00,WeatherDisplay:10.37,2013-01-22 11:53:00,
2013-01-22 06:58:00,3.9,-2.8,29.92,West,270,6.1,8.1,73,0.00,CLR,,0.00,WeatherDisplay:10.37,2013-01-22 11:58:00,
2013-01-22 07:03:00,3.9,-2.8,29.93,WSW,248,7.0,7.0,73,0.00,CLR,,0.00,WeatherDisplay:10.37,2013-01-22 12:03:00,
2013-01-22 07:09:00,3.9,-2.2,29.93,WSW,248,6.1,9.2,75,0.00,CLR,,0.00,WeatherDisplay:10.37,2013-01-22 12:09:00,
2013-01-22 07:14:00,3.9,-2.2,29.93,SW,225,5.5,9.2,75,0.00,CLR,,0.00,WeatherDisplay:10.37,2013-01-22 12:14:00,
2013-01-22 07:19:00,3.9,-2.2,29.93,NW,315,11.1,11.1,75,0.00,CLR,,0.00,WeatherDisplay:10.37,2013-01-22 12:19:00,
2013-01-22 07:24:00,3.7,-2.4,29.94,WNW,292,3.7,5.8,75,0.00,CLR,,0.00,WeatherDisplay:10.37,2013-01-22 12:24:00,
2013-01-22 07:29:00,3.7,-2.4,29.94,NW,315,8.7,15.0,75,0.00,CLR,,0.00,WeatherDisplay:10.37,2013-01-22 12:29:00,
2013-01-22 07:34:00,3.7,-2.1,29.94,WNW,292,6.1,11.5,76,0.00,CLR,,0.00,WeatherDisplay:10.37,2013-01-22 12:34:00,
2013-01-22 07:39:00,3.6,-2.3,29.94,NW,315,3.7,9.2,76,0.00,CLR,,0.00,WeatherDisplay:10.37,2013-01-22 12:39:00,
2013-01-22 07:44:00,3.4,-2.2,29.94,WSW,248,6.4,6.4,77,0.00,CLR,,0.00,WeatherDisplay:10.37,2013-01-22 12:44:00,
2013-01-22 07:49:00,3.4,-2.5,29.94,NW,315,6.4,8.1,76,0.00,CLR,,0.00,WeatherDisplay:10.37,2013-01-22 12:49:00,
2013-01-22 07:54:00,3.4,-2.5,29.94,NW,315,4.3,8.1,76,0.00,CLR,,0.00,WeatherDisplay:10.37,2013-01-22 12:54:00,
2013-01-22 07:59:00,3.6,-2.3,29.95,NW,315,5.8,5.8,76,0.00,CLR,,0.00,WeatherDisplay:10.37,2013-01-22 12:59:00,
2013-01-22 08:04:00,3.6,-2.9,29.95,WSW,248,7.6,8.1,74,0.00,CLR,,0.00,WeatherDisplay:10.37,2013-01-22 13:04:00,
2013-01-22 08:09:00,3.6,-2.9,29.95,West,270,2.4,10.4,74,0.00,CLR,,0.00,WeatherDisplay:10.37,2013-01-22 13:09:00,
2013-01-22 08:14:00,3.6,-3.2,29.95,NW,315,2.8,8.1,73,0.00,CLR,,0.00,WeatherDisplay:10.37,2013-01-22 13:14:00,
2013-01-22 08:19:00,3.6,-3.2,29.96,West,270,8.7,16.1,73,0.00,CLR,,0.00,WeatherDisplay:10.37,2013-01-22 13:19:00,
2013-01-22 08:24:00,3.7,-2.7,29.96,West,270,5.2,11.5,74,0.00,CLR,,0.00,WeatherDisplay:10.37,2013-01-22 13:24:00,
2013-01-22 08:29:00,3.7,-2.7,29.96,WSW,248,6.4,8.1,74,0.00,CLR,,0.00,WeatherDisplay:10.37,2013-01-22 13:29:00,
2013-01-22 08:34:00,3.9,-2.2,29.97,NW,315,7.6,11.5,75,0.00,CLR,,0.00,WeatherDisplay:10.37,2013-01-22 13:34:00,
2013-01-22 08:39:00,3.9,-2.0,29.97,NW,315,4.9,6.9,76,0.00,CLR,,0.00,WeatherDisplay:10.37,2013-01-22 13:39:00,
2013-01-22 08:44:00,3.7,-2.1,29.97,WNW,292,6.1,8.1,76,0.00,CLR,,0.00,WeatherDisplay:10.37,2013-01-22 13:44:00,
2013-01-22 08:49:00,3.7,-2.1,29.97,NW,315,9.0,9.2,76,0.00,CLR,,0.00,WeatherDisplay:10.37,2013-01-22 13:49:00,
2013-01-22 08:54:00,3.7,-2.1,29.97,NW,315,9.9,10.4,76,0.00,CLR,,0.00,WeatherDisplay:10.37,2013-01-22 13:54:00,
2013-01-22 08:59:00,3.9,-2.0,29.97,West,270,5.5,5.8,76,0.00,CLR,,0.00,WeatherDisplay:10.37,2013-01-22 13:59:00,
2013-01-22 09:04:00,3.9,-2.0,29.98,WSW,248,7.8,9.2,76,0.00,CLR,,0.00,WeatherDisplay:10.37,2013-01-22 14:04:00,
2013-01-22 09:09:00,3.9,-1.7,29.98,WSW,248,8.4,11.5,77,0.00,CLR,,0.00,WeatherDisplay:10.37,2013-01-22 14:09:00,
2013-01-22 09:15:00,4.1,-1.5,29.98,NW,315,7.3,11.5,77,0.00,CLR,,0.00,WeatherDisplay:10.37,2013-01-22 14:15:00,
2013-01-22 09:20:00,4.3,-1.3,29.98,NW,315,9.9,11.5,77,0.00,CLR,,0.00,WeatherDisplay:10.37,2013-01-22 14:20:00,
2013-01-22 09:25:00,4.1,-2.1,29.98,NW,315,5.5,16.1,75,0.00,CLR,,0.00,WeatherDisplay:10.37,2013-01-22 14:25:00,
2013-01-22 09:30:00,4.5,-1.7,29.99,West,277,7.0,16.0,75,0.00,CLR,CLR,0.00,WeatherDisplay:10.37,2013-01-22 14:30:00,
2013-01-22 09:36:00,4.6,-1.5,29.99,NNW,338,12.3,12.3,75,0.00,CLR,,0.00,WeatherDisplay:10.37,2013-01-22 14:36:00,
2013-01-22 09:41:00,4.3,-1.9,29.99,NNW,338,6.1,16.1,75,0.00,CLR,,0.00,WeatherDisplay:10.37,2013-01-22 14:41:00,
2013-01-22 09:46:00,4.5,-1.7,29.99,NW,315,9.3,9.3,75,0.00,CLR,,0.00,WeatherDisplay:10.37,2013-01-22 14:46:00,
2013-01-22 09:51:00,4.6,-1.5,29.99,NNW,338,8.4,11.5,75,0.00,CLR,,0.00,WeatherDisplay:10.37,2013-01-22 14:51:00,
2013-01-22 09:56:00,4.5,-1.4,29.99,WSW,248,12.0,12.0,76,0.00,CLR,,0.00,WeatherDisplay:10.37,2013-01-22 14:56:00,
2013-01-22 10:01:00,4.6,-0.7,29.99,WSW,248,7.3,12.7,78,0.00,CLR,,0.00,WeatherDisplay:10.37,2013-01-22 15:01:00,
2013-01-22 10:06:00,4.6,-0.2,29.99,West,270,9.6,12.7,80,0.00,CLR,,0.00,WeatherDisplay:10.37,2013-01-22 15:06:00,
2013-01-22 10:11:00,4.8,-0.3,29.98,NNW,338,5.5,9.2,79,0.00,CLR,,0.00,WeatherDisplay:10.37,2013-01-22 15:11:00,
2013-01-22 10:16:00,5.0,-0.4,29.98,NW,315,11.7,11.7,78,0.00,CLR,,0.00,WeatherDisplay:10.37,2013-01-22 15:16:00,
2013-01-22 10:21:00,5.4,0.5,29.98,NW,315,13.6,13.6,80,0.00,CLR,,0.00,WeatherDisplay:10.37,2013-01-22 15:21:00,
2013-01-22 10:27:00,5.0,0.2,29.98,WNW,292,6.7,16.1,80,0.00,CLR,,0.00,WeatherDisplay:10.37,2013-01-22 15:27:00,
2013-01-22 10:32:00,4.6,-0.7,29.98,NW,315,16.9,17.3,78,0.00,CLR,,0.00,WeatherDisplay:10.37,2013-01-22 15:32:00,
2013-01-22 10:37:00,4.6,-1.3,29.98,NNW,338,11.1,11.5,76,0.00,CLR,,0.00,WeatherDisplay:10.37,2013-01-22 15:37:00,
2013-01-22 10:42:00,4.8,-1.4,29.98,NNW,338,12.0,12.0,75,0.00,CLR,,0.00,WeatherDisplay:10.37,2013-01-22 15:42:00,
2013-01-22 10:47:00,5.0,-1.2,29.98,NW,315,7.6,11.5,75,0.00,CLR,,0.00,WeatherDisplay:10.37,2013-01-22 15:47:00,
2013-01-22 10:52:00,5.4,-0.8,29.98,NW,315,16.0,16.0,75,0.00,CLR,,0.00,WeatherDisplay:10.37,2013-01-22 15:52:00,
2013-01-22 10:57:00,5.4,-0.8,29.98,West,270,10.2,13.8,75,0.00,CLR,,0.00,WeatherDisplay:10.37,2013-01-22 15:57:00,
2013-01-22 11:02:00,5.5,-1.0,29.98,West,270,10.2,10.2,74,0.00,CLR,,0.00,WeatherDisplay:10.37,2013-01-22 16:02:00,
2013-01-22 11:08:00,5.7,-0.5,29.98,West,270,9.3,10.4,75,0.00,CLR,,0.00,WeatherDisplay:10.37,2013-01-22 16:08:00,
2013-01-22 11:13:00,5.5,-0.7,29.98,WNW,292,9.9,12.7,75,0.00,CLR,,0.00,WeatherDisplay:10.37,2013-01-22 16:13:00,
2013-01-22 11:18:00,5.4,-0.6,29.98,WNW,292,9.3,9.3,76,0.00,CLR,,0.00,WeatherDisplay:10.37,2013-01-22 16:18:00,
2013-01-22 11:23:00,5.4,0.0,29.98,WNW,292,5.2,9.2,78,0.00,CLR,,0.00,WeatherDisplay:10.37,2013-01-22 16:23:00,
2013-01-22 11:28:00,5.7,0.3,29.98,West,270,4.3,9.2,78,0.00,CLR,,0.00,WeatherDisplay:10.37,2013-01-22 16:28:00,
2013-01-22 11:33:00,5.7,0.3,29.98,WSW,248,9.3,13.8,78,0.00,CLR,,0.00,WeatherDisplay:10.37,2013-01-22 16:33:00,
2013-01-22 11:38:00,6.1,0.1,29.97,West,270,12.0,12.7,76,0.00,CLR,,0.00,WeatherDisplay:10.37,2013-01-22 16:38:00,
2013-01-22 11:43:00,6.1,0.1,29.97,WSW,248,9.9,9.9,76,0.00,CLR,,0.00,WeatherDisplay:10.37,2013-01-22 16:43:00,
2013-01-22 11:48:00,6.1,0.4,29.97,NW,315,12.0,12.0,77,0.00,CLR,,0.00,WeatherDisplay:10.37,2013-01-22 16:48:00,
2013-01-22 11:53:00,6.3,-0.3,29.97,NW,315,12.9,13.8,74,0.00,CLR,,0.00,WeatherDisplay:10.37,2013-01-22 16:53:00,
2013-01-22 11:59:00,6.3,-0.3,29.97,NW,315,9.0,11.5,74,0.00,CLR,,0.00,WeatherDisplay:10.37,2013-01-22 16:59:00,
2013-01-22 12:04:00,6.4,-1.3,29.97,WNW,292,8.4,12.7,70,0.00,CLR,,0.00,WeatherDisplay:10.37,2013-01-22 17:04:00,
2013-01-22 12:09:00,6.8,-1.5,29.96,WSW,248,11.4,11.4,68,0.00,CLR,,0.00,WeatherDisplay:10.37,2013-01-22 17:09:00,
2013-01-22 12:14:00,7.5,-0.8,29.96,WNW,292,14.8,14.8,68,0.00,CLR,,0.00,WeatherDisplay:10.37,2013-01-22 17:14:00,
2013-01-22 12:19:00,7.2,-1.2,29.96,West,270,7.3,16.1,68,0.00,CLR,,0.00,WeatherDisplay:10.37,2013-01-22 17:19:00,
2013-01-22 12:24:00,7.5,-0.8,29.96,NW,315,16.6,16.6,68,0.00,CLR,,0.00,WeatherDisplay:10.37,2013-01-22 17:24:00,
2013-01-22 12:29:00,7.0,-0.7,29.96,West,270,15.7,17.3,70,0.00,CLR,,0.00,WeatherDisplay:10.37,2013-01-22 17:29:00,
2013-01-22 12:34:00,7.0,-0.1,29.96,West,270,18.1,18.1,72,0.00,CLR,,0.00,WeatherDisplay:10.37,2013-01-22 17:34:00,
2013-01-22 12:40:00,7.2,-0.6,29.96,WNW,292,8.4,13.8,70,0.00,CLR,,0.00,WeatherDisplay:10.37,2013-01-22 17:40:00,
2013-01-22 12:45:00,7.5,-0.5,29.96,WSW,248,12.0,12.0,69,0.00,CLR,,0.00,WeatherDisplay:10.37,2013-01-22 17:45:00,
2013-01-22 12:50:00,7.9,-1.5,29.96,NNW,338,8.1,8.1,65,0.00,CLR,,0.00,WeatherDisplay:10.37,2013-01-22 17:50:00,
2013-01-22 12:55:00,7.5,-1.2,29.96,WNW,292,9.9,13.8,67,0.00,CLR,,0.00,WeatherDisplay:10.37,2013-01-22 17:55:00,
2013-01-22 13:00:00,7.3,-0.4,29.95,NW,315,9.0,11.5,70,0.00,CLR,,0.00,WeatherDisplay:10.37,2013-01-22 18:00:00,
2013-01-22 13:05:00,7.5,-0.2,29.95,NE,45,15.1,15.1,70,0.00,CLR,,0.00,WeatherDisplay:10.37,2013-01-22 18:05:00,
2013-01-22 13:10:00,7.5,0.1,29.95,West,270,12.0,12.7,71,0.00,CLR,,0.00,WeatherDisplay:10.37,2013-01-22 18:10:00,
2013-01-22 13:15:00,7.5,-0.2,29.95,West,270,10.2,15.0,70,0.00,CLR,,0.00,WeatherDisplay:10.37,2013-01-22 18:15:00,
2013-01-22 13:20:00,7.5,-0.2,29.95,West,270,13.0,13.0,70,0.00,CLR,,0.00,WeatherDisplay:10.37,2013-01-22 18:20:00,
2013-01-22 13:25:00,7.5,-0.2,29.95,NW,315,7.3,11.5,70,0.00,CLR,,0.00,WeatherDisplay:10.37,2013-01-22 18:25:00,
2013-01-22 13:30:00,7.5,-0.5,29.95,NW,315,12.9,12.9,69,0.00,CLR,,0.00,WeatherDisplay:10.37,2013-01-22 18:30:00,
2013-01-22 13:35:00,8.1,0.3,29.95,WNW,292,9.9,11.5,70,0.00,CLR,,0.00,WeatherDisplay:10.37,2013-01-22 18:35:00,
2013-01-22 13:40:00,8.4,0.0,29.95,NNW,338,8.1,12.7,68,0.00,CLR,,0.00,WeatherDisplay:10.37,2013-01-22 18:40:00,
2013-01-22 13:45:00,9.0,-0.8,29.95,WSW,248,7.0,9.2,64,0.00,CLR,,0.00,WeatherDisplay:10.37,2013-01-22 18:45:00,
2013-01-22 13:50:00,8.6,-1.1,29.95,WSW,248,14.8,20.7,64,0.00,CLR,,0.00,WeatherDisplay:10.37,2013-01-22 18:50:00,
2013-01-22 13:55:00,7.9,-1.8,29.95,NNW,338,11.7,11.7,64,0.00,CLR,,0.00,WeatherDisplay:10.37,2013-01-22 18:55:00,
2013-01-22 14:00:00,7.5,-1.8,29.95,NNW,338,11.7,16.1,65,0.00,CLR,,0.00,WeatherDisplay:10.37,2013-01-22 19:00:00,
2013-01-22 14:05:00,7.3,-1.0,29.96,NNW,338,9.0,13.8,68,0.00,CLR,,0.00,WeatherDisplay:10.37,2013-01-22 19:05:00,
2013-01-22 14:10:00,7.2,0.0,29.96,West,270,4.0,5.8,72,0.00,CLR,,0.00,WeatherDisplay:10.37,2013-01-22 19:10:00,
2013-01-22 14:15:00,7.0,-0.1,29.96,WSW,248,8.1,8.1,72,0.00,CLR,,0.00,WeatherDisplay:10.37,2013-01-22 19:15:00,
2013-01-22 14:20:00,7.3,-0.1,29.96,North,0,4.6,9.2,71,0.00,CLR,,0.00,WeatherDisplay:10.37,2013-01-22 19:20:00,
2013-01-22 14:25:00,7.7,-0.1,29.96,NNW,338,5.5,6.9,70,0.00,CLR,,0.00,WeatherDisplay:10.37,2013-01-22 19:25:00,
2013-01-22 14:30:00,8.4,0.6,29.96,NNW,338,5.5,15.0,70,0.00,CLR,,0.00,WeatherDisplay:10.37,2013-01-22 19:30:00,
2013-01-22 14:35:00,8.2,0.8,29.96,NNW,338,8.4,8.4,71,0.00,CLR,,0.00,WeatherDisplay:10.37,2013-01-22 19:35:00,
2013-01-22 14:40:00,8.8,1.3,29.96,West,270,18.5,18.5,71,0.00,CLR,,0.00,WeatherDisplay:10.37,2013-01-22 19:40:00,
2013-01-22 14:45:00,9.3,1.5,29.97,NW,315,7.8,9.2,70,0.00,CLR,,0.00,WeatherDisplay:10.37,2013-01-22 19:45:00,
2013-01-22 14:50:00,10.0,0.6,29.96,WNW,292,12.0,12.0,65,0.00,CLR,,0.00,WeatherDisplay:10.37,2013-01-22 19:50:00,
2013-01-22 14:55:00,9.3,-0.7,29.97,WNW,292,14.8,14.8,63,0.00,CLR,,0.00,WeatherDisplay:10.37,2013-01-22 19:55:00,
2013-01-22 15:00:00,9.5,-0.9,29.97,NNW,338,8.7,16.1,62,0.00,CLR,,0.00,WeatherDisplay:10.37,2013-01-22 20:00:00,
2013-01-22 15:05:00,9.1,-1.6,29.97,WSW,248,12.9,13.8,61,0.00,CLR,,0.00,WeatherDisplay:10.37,2013-01-22 20:05:00,
2013-01-22 15:10:00,9.1,-0.9,29.97,West,270,16.6,16.6,63,0.00,CLR,,0.00,WeatherDisplay:10.37,2013-01-22 20:10:00,
2013-01-22 15:15:00,9.0,-1.1,29.97,NNW,338,9.9,10.4,63,0.00,CLR,,0.00,WeatherDisplay:10.37,2013-01-22 20:15:00,
2013-01-22 15:20:00,8.6,-1.4,29.97,WNW,292,12.9,18.4,63,0.00,CLR,,0.00,WeatherDisplay:10.37,2013-01-22 20:20:00,
2013-01-22 15:25:00,8.4,-1.3,29.97,NW,315,9.9,9.9,64,0.00,CLR,,0.00,WeatherDisplay:10.37,2013-01-22 20:25:00,
2013-01-22 15:30:00,8.2,-1.4,29.97,WSW,248,12.0,15.0,64,0.00,CLR,,0.00,WeatherDisplay:10.37,2013-01-22 20:30:00,
2013-01-22 15:35:00,8.2,-1.4,29.97,WSW,248,6.1,11.5,64,0.00,CLR,,0.00,WeatherDisplay:10.37,2013-01-22 20:35:00,
2013-01-22 15:40:00,8.4,-1.3,29.97,NW,315,20.6,20.6,64,0.00,CLR,,0.00,WeatherDisplay:10.37,2013-01-22 20:40:00,
2013-01-22 15:45:00,8.2,-1.4,29.97,NW,315,6.4,11.5,64,0.00,CLR,,0.00,WeatherDisplay:10.37,2013-01-22 20:45:00,
2013-01-22 15:50:00,7.9,-2.5,29.97,WSW,248,10.5,11.5,62,0.00,CLR,,0.00,WeatherDisplay:10.37,2013-01-22 20:50:00,
2013-01-22 15:55:00,7.5,-2.1,29.97,North,0,9.6,13.8,64,0.00,CLR,,0.00,WeatherDisplay:10.37,2013-01-22 20:55:00,
2013-01-22 16:00:00,7.5,-1.8,29.97,West,270,11.7,11.7,65,0.00,CLR,,0.00,WeatherDisplay:10.37,2013-01-22 21:00:00,
2013-01-22 16:05:00,7.5,-0.8,29.98,NW,315,10.8,10.8,68,0.00,CLR,,0.00,WeatherDisplay:10.37,2013-01-22 21:05:00,
2013-01-22 16:10:00,7.5,-1.8,29.97,WNW,292,12.0,13.8,65,0.00,CLR,,0.00,WeatherDisplay:10.37,2013-01-22 21:10:00,
2013-01-22 16:15:00,7.5,-1.8,29.97,NW,315,8.7,13.8,65,0.00,CLR,,0.00,WeatherDisplay:10.37,2013-01-22 21:15:00,
2013-01-22 16:20:00,7.5,-1.2,29.98,NW,315,7.0,7.0,67,0.00,CLR,,0.00,WeatherDisplay:10.37,2013-01-22 21:20:00,
2013-01-22 16:25:00,7.5,-0.8,29.98,WSW,248,6.7,11.5,68,0.00,CLR,,0.00,WeatherDisplay:10.37,2013-01-22 21:25:00,
2013-01-22 16:30:00,7.9,-0.5,29.98,NNW,338,8.1,8.1,68,0.00,CLR,,0.00,WeatherDisplay:10.37,2013-01-22 21:30:00,
2013-01-22 16:34:00,7.7,-1.3,29.98,NW,315,9.9,10.4,66,0.00,CLR,,0.00,WeatherDisplay:10.37,2013-01-22 21:34:00,
2013-01-22 16:40:00,7.5,-1.8,29.98,NW,315,5.5,13.8,65,0.00,CLR,,0.00,WeatherDisplay:10.37,2013-01-22 21:40:00,
2013-01-22 16:45:00,7.3,-1.6,29.99,WNW,292,9.3,11.5,66,0.00,CLR,,0.00,WeatherDisplay:10.37,2013-01-22 21:45:00,
2013-01-22 16:50:00,7.0,-2.0,29.99,NW,315,9.0,13.0,66,0.00,CLR,CLR,0.00,WeatherDisplay:10.37,2013-01-22 21:50:00,
2013-01-22 16:56:00,7.0,-1.4,29.99,NW,315,8.4,9.2,68,0.00,CLR,,0.00,WeatherDisplay:10.37,2013-01-22 21:56:00,
2013-01-22 17:01:00,7.0,-1.4,30.00,NNW,338,6.7,6.9,68,0.00,CLR,,0.00,WeatherDisplay:10.37,2013-01-22 22:01:00,
2013-01-22 17:06:00,6.8,-0.9,30.00,NW,315,9.6,12.7,70,0.00,CLR,,0.00,WeatherDisplay:10.37,2013-01-22 22:06:00,
2013-01-22 17:11:00,6.8,-0.9,30.00,NW,315,9.9,11.5,70,0.00,CLR,,0.00,WeatherDisplay:10.37,2013-01-22 22:11:00,
2013-01-22 17:16:00,6.8,-0.6,30.00,NNW,338,6.7,11.5,71,0.00,CLR,,0.00,WeatherDisplay:10.37,2013-01-22 22:16:00,
2013-01-22 17:21:00,6.8,-0.6,30.00,NW,315,3.7,6.9,71,0.00,CLR,,0.00,WeatherDisplay:10.37,2013-01-22 22:21:00,
2013-01-22 17:26:00,6.8,-0.9,30.00,NW,315,4.6,8.1,70,0.00,CLR,,0.00,WeatherDisplay:10.37,2013-01-22 22:26:00,
2013-01-22 17:31:00,6.8,-0.9,30.00,NNW,338,6.7,6.9,70,0.00,CLR,,0.00,WeatherDisplay:10.37,2013-01-22 22:31:00,
2013-01-22 17:36:00,6.6,-1.1,30.00,NW,315,9.9,15.0,70,0.00,CLR,,0.00,WeatherDisplay:10.37,2013-01-22 22:36:00,
2013-01-22 17:41:00,6.6,-0.5,30.00,WNW,292,7.0,8.1,72,0.00,CLR,,0.00,WeatherDisplay:10.37,2013-01-22 22:41:00,
2013-01-22 17:46:00,6.6,-0.5,30.01,WNW,292,2.4,5.8,72,0.00,CLR,,0.00,WeatherDisplay:10.37,2013-01-22 22:46:00,
2013-01-22 17:51:00,6.6,-0.5,30.01,NW,315,9.9,12.7,72,0.00,CLR,,0.00,WeatherDisplay:10.37,2013-01-22 22:51:00,
2013-01-22 17:56:00,6.8,-0.6,30.01,WNW,292,6.1,8.1,71,0.00,CLR,,0.00,WeatherDisplay:10.37,2013-01-22 22:56:00,
2013-01-22 18:01:00,6.8,-0.9,30.01,NNW,338,5.2,10.4,70,0.00,CLR,,0.00,WeatherDisplay:10.37,2013-01-22 23:01:00,
2013-01-22 18:06:00,6.8,-1.2,30.01,NW,315,8.7,10.4,69,0.00,CLR,,0.00,WeatherDisplay:10.37,2013-01-22 23:06:00,
2013-01-22 18:11:00,6.8,-1.5,30.01,NW,315,9.3,9.3,68,0.00,CLR,,0.00,WeatherDisplay:10.37,2013-01-22 23:11:00,
2013-01-22 18:16:00,6.8,-1.5,30.01,NW,315,7.8,9.2,68,0.00,CLR,,0.00,WeatherDisplay:10.37,2013-01-22 23:16:00,
2013-01-22 18:21:00,6.6,-1.1,30.01,NW,315,10.2,10.2,70,0.00,CLR,,0.00,WeatherDisplay:10.37,2013-01-22 23:21:00,
2013-01-22 18:26:00,6.4,-1.3,30.01,NNW,338,7.0,11.5,70,0.00,CLR,,0.00,WeatherDisplay:10.37,2013-01-22 23:26:00,
2013-01-22 18:31:00,6.4,-1.3,30.01,NNW,338,4.3,5.8,70,0.00,CLR,,0.00,WeatherDisplay:10.37,2013-01-22 23:31:00,
2013-01-22 18:36:00,6.4,-1.3,30.01,NNW,338,2.8,13.8,70,0.00,CLR,,0.00,WeatherDisplay:10.37,2013-01-22 23:36:00,
2013-01-22 18:41:00,6.3,-1.7,30.01,NW,315,13.0,13.0,69,0.00,CLR,,0.00,WeatherDisplay:10.37,2013-01-22 23:41:00,
2013-01-22 18:46:00,6.4,-1.3,30.01,NNW,338,2.4,8.1,70,0.00,CLR,,0.00,WeatherDisplay:10.37,2013-01-22 23:46:00,
2013-01-22 18:51:00,6.4,-1.3,30.01,WNW,292,6.4,8.1,70,0.00,CLR,,0.00,WeatherDisplay:10.37,2013-01-22 23:51:00,
2013-01-22 18:56:00,6.3,-1.4,30.01,NNW,338,8.1,8.1,70,0.00,CLR,,0.00,WeatherDisplay:10.37,2013-01-22 23:56:00,
2013-01-22 19:01:00,6.4,-1.3,30.01,NW,315,7.0,7.0,70,0.00,CLR,,0.00,WeatherDisplay:10.37,2013-01-23 00:01:00,
2013-01-22 19:06:00,6.4,-1.3,30.02,NNW,338,6.1,6.1,70,0.00,CLR,,0.00,WeatherDisplay:10.37,2013-01-23 00:06:00,
2013-01-22 19:11:00,6.3,-0.8,30.02,NW,315,12.0,12.0,72,0.00,CLR,,0.00,WeatherDisplay:10.37,2013-01-23 00:11:00,
2013-01-22 19:16:00,6.1,-0.7,30.02,NW,315,2.4,9.2,73,0.00,CLR,,0.00,WeatherDisplay:10.37,2013-01-23 00:16:00,
2013-01-22 19:21:00,6.1,-0.7,30.02,NW,315,12.9,12.9,73,0.00,CLR,,0.00,WeatherDisplay:10.37,2013-01-23 00:21:00,
2013-01-22 19:26:00,6.1,-0.7,30.02,NW,315,9.3,9.3,73,0.00,CLR,,0.00,WeatherDisplay:10.37,2013-01-23 00:26:00,
2013-01-22 19:31:00,6.1,-0.4,30.02,NNW,338,4.6,4.6,74,0.00,CLR,,0.00,WeatherDisplay:10.37,2013-01-23 00:31:00,
2013-01-22 19:36:00,6.1,-0.4,30.02,North,0,3.4,5.8,74,0.00,CLR,,0.00,WeatherDisplay:10.37,2013-01-23 00:36:00,
2013-01-22 19:41:00,6.1,-0.1,30.03,NW,315,4.9,5.8,75,0.00,CLR,,0.00,WeatherDisplay:10.37,2013-01-23 00:41:00,
2013-01-22 19:46:00,5.9,-0.3,30.03,NNW,338,8.1,8.1,75,0.00,CLR,,0.00,WeatherDisplay:10.37,2013-01-23 00:46:00,
2013-01-22 19:51:00,5.9,-0.6,30.03,NW,315,6.1,9.2,74,0.00,CLR,,0.00,WeatherDisplay:10.37,2013-01-23 00:51:00,
2013-01-22 19:56:00,6.1,-0.4,30.03,NW,315,9.0,9.0,74,0.00,CLR,,0.00,WeatherDisplay:10.37,2013-01-23 00:56:00,
2013-01-22 20:01:00,6.1,-1.0,30.03,WNW,292,2.5,6.9,72,0.00,CLR,,0.00,WeatherDisplay:10.37,2013-01-23 01:01:00,
2013-01-22 20:06:00,6.1,-1.0,30.03,NW,315,6.4,6.9,72,0.00,CLR,,0.00,WeatherDisplay:10.37,2013-01-23 01:06:00,
2013-01-22 20:11:00,6.1,-1.6,30.03,WSW,248,8.1,9.2,70,0.00,CLR,,0.00,WeatherDisplay:10.37,2013-01-23 01:11:00,
2013-01-22 20:16:00,6.1,-1.6,30.03,North,0,2.5,8.1,70,0.00,CLR,,0.00,WeatherDisplay:10.37,2013-01-23 01:16:00,
2013-01-22 20:21:00,6.1,-1.6,30.03,NW,315,5.2,8.1,70,0.00,CLR,,0.00,WeatherDisplay:10.37,2013-01-23 01:21:00,
2013-01-22 20:26:00,5.9,-1.8,30.03,NW,315,4.9,6.9,70,0.00,CLR,,0.00,WeatherDisplay:10.37,2013-01-23 01:26:00,
2013-01-22 20:31:00,5.9,-1.8,30.03,NW,315,6.7,8.1,70,0.00,CLR,,0.00,WeatherDisplay:10.37,2013-01-23 01:31:00,
2013-01-22 20:36:00,5.9,-1.8,30.03,NW,315,5.5,8.1,70,0.00,CLR,,0.00,WeatherDisplay:10.37,2013-01-23 01:36:00,
2013-01-22 20:41:00,5.9,-1.8,30.03,NNW,338,6.1,6.1,70,0.00,CLR,,0.00,WeatherDisplay:10.37,2013-01-23 01:41:00,
2013-01-22 20:46:00,5.7,-2.0,30.03,NW,315,10.2,11.5,70,0.00,CLR,,0.00,WeatherDisplay:10.37,2013-01-23 01:46:00,
2013-01-22 20:51:00,5.7,-1.7,30.03,NW,315,4.3,5.8,71,0.00,CLR,,0.00,WeatherDisplay:10.37,2013-01-23 01:51:00,
2013-01-22 20:56:00,5.7,-1.7,30.03,NW,315,7.6,7.6,71,0.00,CLR,,0.00,WeatherDisplay:10.37,2013-01-23 01:56:00,
2013-01-22 21:02:00,5.7,-1.7,30.03,NW,315,3.4,6.9,71,0.00,CLR,,0.00,WeatherDisplay:10.37,2013-01-23 02:02:00,
2013-01-22 21:08:00,5.7,-1.4,30.03,NNW,338,8.1,8.1,72,0.00,CLR,,0.00,WeatherDisplay:10.37,2013-01-23 02:08:00,
2013-01-22 21:13:00,5.7,-1.1,30.03,WNW,292,6.7,9.2,73,0.00,CLR,,0.00,WeatherDisplay:10.37,2013-01-23 02:13:00,
2013-01-22 21:18:00,5.5,-1.0,30.03,NNW,338,3.1,8.1,74,0.00,CLR,,0.00,WeatherDisplay:10.37,2013-01-23 02:18:00,
2013-01-22 21:23:00,5.5,-1.0,30.03,NNW,338,2.5,5.8,74,0.00,CLR,,0.00,WeatherDisplay:10.37,2013-01-23 02:23:00,
2013-01-22 21:28:00,5.5,-0.7,30.03,NW,315,4.9,5.8,75,0.00,CLR,,0.00,WeatherDisplay:10.37,2013-01-23 02:28:00,
2013-01-22 21:33:00,5.5,-0.7,30.03,NNW,338,4.0,6.9,75,0.00,CLR,,0.00,WeatherDisplay:10.37,2013-01-23 02:33:00,
2013-01-22 21:38:00,5.5,-0.7,30.04,NNW,338,5.5,5.8,75,0.00,CLR,,0.00,WeatherDisplay:10.37,2013-01-23 02:38:00,
2013-01-22 21:44:00,5.5,-0.7,30.04,NW,315,7.0,7.0,75,0.00,CLR,,0.00,WeatherDisplay:10.37,2013-01-23 02:44:00,
2013-01-22 21:49:00,5.5,-0.7,30.04,SSW,202,5.8,5.8,75,0.00,CLR,,0.00,WeatherDisplay:10.37,2013-01-23 02:49:00,
2013-01-22 21:54:00,5.5,-0.7,30.03,NW,315,2.4,8.1,75,0.00,CLR,,0.00,WeatherDisplay:10.37,2013-01-23 02:54:00,
2013-01-22 21:59:00,5.5,-0.7,30.03,NW,315,10.2,10.2,75,0.00,CLR,,0.00,WeatherDisplay:10.37,2013-01-23 02:59:00,
2013-01-22 22:04:00,5.5,-0.4,30.03,WNW,292,6.4,8.1,76,0.00,CLR,,0.00,WeatherDisplay:10.37,2013-01-23 03:04:00,
2013-01-22 22:09:00,5.4,-0.6,30.03,NNW,338,2.8,6.9,76,0.00,CLR,,0.00,WeatherDisplay:10.37,2013-01-23 03:09:00,
2013-01-22 22:14:00,5.4,-0.6,30.03,WSW,248,3.1,5.8,76,0.00,CLR,,0.00,WeatherDisplay:10.37,2013-01-23 03:14:00,
2013-01-22 22:19:00,5.4,-0.3,30.03,NNW,338,8.1,11.5,77,0.00,CLR,,0.00,WeatherDisplay:10.37,2013-01-23 03:19:00,
2013-01-22 22:24:00,5.4,-0.3,30.03,North,0,5.5,5.5,77,0.00,CLR,,0.00,WeatherDisplay:10.37,2013-01-23 03:24:00,
2013-01-22 22:29:00,5.4,0.0,30.03,NNW,338,0.6,3.5,78,0.00,CLR,,0.00,WeatherDisplay:10.37,2013-01-23 03:29:00,
2013-01-22 22:34:00,5.4,0.0,30.03,NW,315,5.8,5.8,78,0.00,CLR,,0.00,WeatherDisplay:10.37,2013-01-23 03:34:00,
2013-01-22 22:39:00,5.2,0.1,30.03,NNW,338,6.1,6.9,79,0.00,CLR,,0.00,WeatherDisplay:10.37,2013-01-23 03:39:00,
2013-01-22 22:44:00,5.2,0.4,30.03,NNW,338,6.7,8.1,80,0.00,CLR,,0.00,WeatherDisplay:10.37,2013-01-23 03:44:00,
2013-01-22 22:49:00,5.0,0.2,30.03,WNW,292,4.3,4.3,80,0.00,CLR,,0.00,WeatherDisplay:10.37,2013-01-23 03:49:00,
2013-01-22 22:54:00,5.0,0.2,30.03,NW,315,5.5,6.9,80,0.00,CLR,,0.00,WeatherDisplay:10.37,2013-01-23 03:54:00,
2013-01-22 22:59:00,5.0,-0.1,30.03,NW,315,7.3,11.5,79,0.00,CLR,,0.00,WeatherDisplay:10.37,2013-01-23 03:59:00,
2013-01-22 23:04:00,5.0,-0.1,30.03,NW,315,2.1,2.3,79,0.00,CLR,,0.00,WeatherDisplay:10.37,2013-01-23 04:04:00,
2013-01-22 23:10:00,5.0,-0.4,30.03,NW,315,4.9,5.8,78,0.00,CLR,,0.00,WeatherDisplay:10.37,2013-01-23 04:10:00,
2013-01-22 23:15:00,4.8,-0.5,30.03,West,270,9.3,9.3,78,0.00,CLR,,0.00,WeatherDisplay:10.37,2013-01-23 04:15:00,
2013-01-22 23:20:00,4.8,-0.5,30.03,NW,310,6.0,9.0,78,0.00,CLR,CLR,0.00,WeatherDisplay:10.37,2013-01-23 04:20:00,
2013-01-22 23:26:00,4.8,-0.5,30.03,WSW,248,4.3,4.6,78,0.00,CLR,,0.00,WeatherDisplay:10.37,2013-01-23 04:26:00,
2013-01-22 23:31:00,4.8,-0.3,30.03,NW,315,3.7,5.8,79,0.00,CLR,,0.00,WeatherDisplay:10.37,2013-01-23 04:31:00,
2013-01-22 23:36:00,4.8,-0.3,30.03,NW,315,4.3,4.3,79,0.00,CLR,,0.00,WeatherDisplay:10.37,2013-01-23 04:36:00,
2013-01-22 23:41:00,4.8,0.0,30.02,NW,315,1.2,6.9,80,0.00,CLR,,0.00,WeatherDisplay:10.37,2013-01-23 04:41:00,
2013-01-22 23:46:00,4.6,-0.2,30.03,WNW,292,0.6,3.5,80,0.00,CLR,,0.00,WeatherDisplay:10.37,2013-01-23 04:46:00,
2013-01-22 23:52:00,4.6,0.1,30.02,NW,315,6.1,6.1,81,0.00,CLR,,0.00,WeatherDisplay:10.37,2013-01-23 04:52:00,
2013-01-22 23:57:00,4.6,0.1,30.02,NNE,22,3.7,3.7,81,0.00,CLR,,0.00,WeatherDisplay:10.37,2013-01-23 04:57:00,